Latest Coastal Weather Observations for Point Fawcett

IDD60701

Issued at 7:45 am CST Sunday 20 April 2014 (issued every 10 minutes, with the page automatically refreshed every 10 minutes)

About coastal observations | Map of coastal stations | Coastal observations for NT | Marine services | Other Formats
Station Details ID: 200731 Name: POINT FAWCETT Lat: -11.76 Lon: 130.03 Height: 6.5 m
Data from the previous 72 hours. | See also: Recent months at Point Fawcett
Date/Time
CST
Temp

°C
Wind Pressure Rain
since 9am
mm
Weather Cloud Vis
km
Sea
Height
m
Swell
Dir
 
Speed
knots
Gust
knots
hPa Trend Height
m
Period
s
Dir
20/07:30am 24.3 ESE 4 5 1009.5 - - - - - - - - -
20/07:00am 23.3 SE 4 5 1009.2 - - - - - - - - -
20/06:30am 23.3 ESE 3 4 1009.0 - - - - - - - - -
20/06:00am 23.3 E 4 4 1008.7 - - - - - - - - -
20/05:30am 23.3 E 4 4 1008.8 - - - - - - - - -
20/05:00am 23.5 E 3 4 1008.7 - - - - - - - - -
20/04:30am 23.7 E 3 4 1008.5 - - - - - - - - -
20/04:00am 24.0 E 4 5 1008.3 - - - - - - - - -
20/03:30am 24.5 ESE 4 5 1008.3 - - - - - - - - -
20/03:00am 24.7 E 4 6 1008.3 - - - - - - - - -
20/02:30am 25.0 E 4 6 1008.5 - - - - - - - - -
20/02:00am 25.1 E 5 8 1008.8 - - - - - - - - -
20/01:30am 25.2 E 6 9 1009.3 - - - - - - - - -
20/01:00am 25.1 E 8 11 1009.3 - - - - - - - - -
20/12:30am 24.9 E 5 8 1009.8 - - - - - - - - -
20/12:00am 25.2 E 5 8 1009.9 - - - - - - - - -
 
Date/Time
CST
Temp

°C
Wind Pressure Rain
since 9am
mm
Weather Cloud Vis
km
Sea
Height
m
Swell
Dir
 
Speed
knots
Gust
knots
hPa Trend Height
m
Period
s
Dir
19/11:30pm 25.4 E 4 6 1009.9 - - - - - - - - -
19/11:00pm 25.5 E 4 6 1010.3 - - - - - - - - -
19/10:30pm 25.5 E 6 8 1010.4 - - - - - - - - -
19/10:00pm 25.5 SE 3 5 1010.6 - - - - - - - - -
19/09:30pm 27.4 E 6 10 1010.6 - - - - - - - - -
19/09:00pm 27.1 E 6 9 1010.2 - - - - - - - - -
19/08:30pm 26.0 E 4 5 1009.6 - - - - - - - - -
19/08:00pm 26.1 E 4 5 1009.2 - - - - - - - - -
19/07:30pm 26.5 E 4 5 1008.6 - - - - - - - - -
19/07:00pm 27.4 NE 3 5 1008.5 - - - - - - - - -
19/06:30pm 28.4 E 3 5 1008.2 - - - - - - - - -
19/06:00pm 28.9 ESE 6 10 1007.8 - - - - - - - - -
19/05:30pm 29.4 ESE 6 11 1007.8 - - - - - - - - -
19/05:00pm 30.8 ESE 7 11 1007.4 - - - - - - - - -
19/04:30pm 31.9 ESE 7 11 1007.1 - - - - - - - - -
19/04:00pm 32.3 ESE 7 10 1006.9 - - - - - - - - -
19/03:30pm 31.0 ESE 7 13 1006.9 - - - - - - - - -
19/03:00pm 31.9 SE 8 14 1007.1 - - - - - - - - -
19/02:30pm 32.1 ESE 8 12 1007.4 - - - - - - - - -
19/02:00pm 31.8 SE 7 11 1007.7 - - - - - - - - -
19/01:30pm 31.4 SE 8 15 1008.2 - - - - - - - - -
19/01:00pm 32.4 ESE 5 8 1008.6 - - - - - - - - -
19/12:30pm 31.9 ESE 6 10 1009.1 - - - - - - - - -
19/12:00pm 32.0 E 7 12 1009.5 - - - - - - - - -
19/11:30am 31.6 E 6 11 1010.1 - - - - - - - - -
19/11:00am 31.5 E 8 12 1010.6 - - - - - - - - -
19/10:30am 30.9 ESE 8 12 1010.8 - - - - - - - - -
19/10:00am 30.6 E 8 12 1010.9 - - - - - - - - -
19/09:30am 30.0 E 7 12 1010.7 - - - - - - - - -
19/09:00am 29.0 E 7 12 1010.6 - - - - - - - - -
19/08:30am 27.7 E 6 9 1010.7 - - - - - - - - -
19/08:00am 26.6 E 5 7 1010.7 - - - - - - - - -
19/07:30am 25.5 E 4 6 1010.5 - - - - - - - - -
19/07:00am 25.0 E 5 7 1010.3 - - - - - - - - -
19/06:30am 25.0 E 5 7 1010.0 - - - - - - - - -
19/06:00am 25.0 E 5 8 1009.8 - - - - - - - - -
19/05:30am 25.1 E 5 6 1009.8 - - - - - - - - -
19/05:00am 25.2 E 4 5 1009.5 - - - - - - - - -
19/04:30am 25.6 E 4 6 1009.6 - - - - - - - - -
19/04:00am 25.5 E 2 5 1009.5 - - - - - - - - -
19/03:30am 25.4 SSE 2 3 1009.8 - - - - - - - - -
19/03:00am 25.4 E 2 3 1009.7 - - - - - - - - -
19/02:30am 25.6 CALM 0 0 1009.8 - - - - - - - - -
19/02:00am 25.5 CALM 0 0 1010.3 - - - - - - - - -
19/01:30am 25.5 ENE 1 4 1010.6 - - - - - - - - -
19/01:00am 25.4 CALM 0 4 1010.8 - - - - - - - - -
19/12:30am 25.5 CALM 0 1 1011.2 - - - - - - - - -
19/12:00am 25.5 E 5 8 1011.2 - - - - - - - - -
 
Date/Time
CST
Temp

°C
Wind Pressure Rain
since 9am
mm
Weather Cloud Vis
km
Sea
Height
m
Swell
Dir
 
Speed
knots
Gust
knots
hPa Trend Height
m
Period
s
Dir
18/11:30pm 25.8 ESE 5 7 1011.5 - - - - - - - - -
18/11:00pm 25.7 ESE 6 8 1011.4 - - - - - - - - -
18/10:30pm 25.8 ESE 4 4 1011.5 - - - - - - - - -
18/10:00pm 25.9 E 4 5 1011.4 - - - - - - - - -
18/09:30pm 26.0 E 4 5 1011.3 - - - - - - - - -
18/09:00pm 25.8 ESE 4 4 1011.0 - - - - - - - - -
18/08:30pm 25.8 E 4 4 1010.8 - - - - - - - - -
18/08:00pm 25.7 ESE 3 4 1010.8 - - - - - - - - -
18/07:30pm 26.0 ENE 3 3 1010.4 - - - - - - - - -
18/07:00pm 26.5 E 4 5 1010.3 - - - - - - - - -
18/06:30pm 27.0 E 3 4 1009.9 - - - - - - - - -
18/06:00pm 27.3 ENE 5 7 1009.5 - - - - - - - - -
18/05:30pm 26.9 ENE 4 6 1009.1 - - - - - - - - -
18/05:00pm 27.0 NE 4 6 1008.9 - - - - - - - - -
18/04:30pm 26.6 N 7 11 1008.5 - - - - - - - - -
18/04:00pm 26.6 NE 10 16 1009.0 - - - - - - - - -
18/03:30pm 30.5 NW 6 10 1008.4 - - - - - - - - -
18/03:00pm 30.9 WSW 5 8 1008.5 - - - - - - - - -
18/02:30pm 30.5 E 6 11 1008.9 - - - - - - - - -
18/02:00pm 33.2 N 6 10 1008.8 - - - - - - - - -
18/01:30pm 33.3 NNE 5 7 1009.1 - - - - - - - - -
18/01:00pm 32.2 E 6 10 1009.5 - - - - - - - - -
18/12:30pm 32.0 E 7 11 1009.9 - - - - - - - - -
18/12:00pm 30.4 E 9 13 1010.2 - - - - - - - - -
18/11:30am 31.3 ESE 6 9 1010.6 - - - - - - - - -
18/11:00am 30.9 E 6 10 1010.9 - - - - - - - - -
18/10:30am 29.9 ESE 7 10 1011.1 - - - - - - - - -
18/10:00am 28.1 ESE 5 8 1011.1 - - - - - - - - -
18/09:30am 26.2 E 5 6 1011.3 - - - - - - - - -
18/09:00am 25.6 ESE 4 6 1011.3 - - - - - - - - -
18/08:30am 25.1 SE 4 6 1011.0 - - - - - - - - -
18/08:00am 24.5 SE 5 8 1011.1 - - - - - - - - -
18/07:30am 24.6 ESE 10 16 1011.2 - - - - - - - - -
18/07:00am 25.6 SE 4 5 1010.4 - - - - - - - - -
18/06:30am 25.7 SSE 4 5 1010.0 - - - - - - - - -
18/06:00am 26.5 S 3 4 1009.7 - - - - - - - - -
18/05:30am 27.9 W 6 8 1009.3 - - - - - - - - -
18/05:00am 28.1 W 7 9 1009.2 - - - - - - - - -
18/04:30am 28.2 W 7 9 1009.3 - - - - - - - - -
18/04:00am 27.8 WSW 6 8 1009.3 - - - - - - - - -
18/03:30am 27.2 WSW 5 7 1009.7 - - - - - - - - -
18/03:00am 26.7 W 6 8 1009.6 - - - - - - - - -
18/02:30am 25.8 W 5 6 1009.8 - - - - - - - - -
18/02:00am 26.3 W 6 8 1009.9 - - - - - - - - -
18/01:30am 25.7 W 5 6 1010.4 - - - - - - - - -
18/01:00am 25.7 W 5 7 1010.5 - - - - - - - - -
18/12:30am 25.6 WNW 4 6 1010.9 - - - - - - - - -
18/12:00am 25.6 W 5 6 1010.9 - - - - - - - - -
 
Date/Time
CST
Temp

°C
Wind Pressure Rain
since 9am
mm
Weather Cloud Vis
km
Sea
Height
m
Swell
Dir
 
Speed
knots
Gust
knots
hPa Trend Height
m
Period
s
Dir
17/11:30pm 25.7 S 2 4 1011.2 - - - - - - - - -
17/11:00pm 25.6 S 3 4 1011.1 - - - - - - - - -
17/10:30pm 25.6 SSE 2 3 1011.4 - - - - - - - - -
17/10:00pm 25.3 SSE 3 4 1011.5 - - - - - - - - -
17/09:30pm 25.3 SE 3 5 1011.4 - - - - - - - - -
17/09:00pm 25.5 SE 4 5 1011.1 - - - - - - - - -
17/08:30pm 25.4 ENE 5 7 1011.0 - - - - - - - - -
17/08:00pm 25.3 ENE 6 8 1010.7 - - - - - - - - -
17/07:30pm 26.5 E 8 13 1010.6 - - - - - - - - -
17/07:00pm 29.7 NNW 5 6 1009.7 - - - - - - - - -
17/06:30pm 30.8 NNW 4 6 1009.4 - - - - - - - - -
17/06:00pm 31.2 WNW 6 8 1008.8 - - - - - - - - -
17/05:30pm 31.6 WNW 6 8 1008.5 - - - - - - - - -
17/05:00pm 31.8 NW 6 8 1008.1 - - - - - - - - -
17/04:30pm 32.1 NW 6 7 1008.0 - - - - - - - - -
17/04:00pm 31.9 WNW 7 8 1007.9 - - - - - - - - -
17/03:30pm 32.0 NW 7 9 1008.1 - - - - - - - - -
17/03:00pm 31.8 NW 7 8 1008.1 - - - - - - - - -
17/02:30pm 31.9 WNW 6 8 1008.5 - - - - - - - - -
17/02:00pm 32.2 NW 6 7 1008.8 - - - - - - - - -
17/01:30pm 32.4 NW 5 7 1009.2 - - - - - - - - -
17/01:00pm 32.3 NW 5 6 1009.3 - - - - - - - - -
17/12:30pm 32.2 NNW 5 6 1009.5 - - - - - - - - -
17/12:00pm 32.0 NW 5 6 1010.1 - - - - - - - - -
17/11:30am 31.6 NW 5 6 1010.8 - - - - - - - - -
17/11:00am 31.2 WNW 5 6 1011.0 - - - - - - - - -
17/10:30am 30.9 W 4 5 1011.1 - - - - - - - - -
17/10:00am 30.3 WSW 3 5 1011.2 - - - - - - - - -
17/09:30am 29.5 SW 4 6 1011.0 - - - - - - - - -
17/09:00am 28.6 WSW 4 5 1010.7 - - - - - - - - -
17/08:30am 27.7 S 3 4 1010.6 - - - - - - - - -
17/08:00am 25.6 S 3 4 1010.6 - - - - - - - - -

Other Formats:

Comma delimited format used in spreadsheet applications
http://www.bom.gov.au/fwo/IDD60701/IDD60701.94122.axf

JavaScript Object Notation format (JSON) in row-major order
http://www.bom.gov.au/fwo/IDD60701/IDD60701.94122.json